sensor_id;sensor_type;location;lat;lon;timestamp;pressure;altitude;pressure_sealevel;temperature;humidity
30730;BME280;17476;48.458;7.928;2023-05-14T00:02:06;99959.75;;;12.95;89.63
30730;BME280;17476;48.458;7.928;2023-05-14T00:04:32;99958.38;;;12.99;89.84
30730;BME280;17476;48.458;7.928;2023-05-14T00:06:58;99953.78;;;13.01;89.52
30730;BME280;17476;48.458;7.928;2023-05-14T00:09:24;99951.63;;;13.04;89.11
30730;BME280;17476;48.458;7.928;2023-05-14T00:11:49;99948.47;;;13.09;89.18
30730;BME280;17476;48.458;7.928;2023-05-14T00:14:15;99945.47;;;13.12;88.63
30730;BME280;17476;48.458;7.928;2023-05-14T00:16:41;99940.88;;;13.14;87.71
30730;BME280;17476;48.458;7.928;2023-05-14T00:19:07;99941.22;;;13.11;87.46
30730;BME280;17476;48.458;7.928;2023-05-14T00:21:32;99930.38;;;13.14;86.95
30730;BME280;17476;48.458;7.928;2023-05-14T00:23:58;99932.00;;;13.15;86.30
30730;BME280;17476;48.458;7.928;2023-05-14T00:26:24;99931.91;;;13.08;86.55
30730;BME280;17476;48.458;7.928;2023-05-14T00:28:50;99929.16;;;13.02;86.48
30730;BME280;17476;48.458;7.928;2023-05-14T00:31:16;99930.22;;;12.93;86.70
30730;BME280;17476;48.458;7.928;2023-05-14T00:33:41;99929.97;;;12.88;87.03
30730;BME280;17476;48.458;7.928;2023-05-14T00:36:07;99922.00;;;12.81;88.68
30730;BME280;17476;48.458;7.928;2023-05-14T00:38:33;99928.22;;;12.80;88.60
30730;BME280;17476;48.458;7.928;2023-05-14T00:40:59;99921.81;;;12.82;87.84
30730;BME280;17476;48.458;7.928;2023-05-14T00:43:25;99918.56;;;12.80;87.98
30730;BME280;17476;48.458;7.928;2023-05-14T00:45:53;99925.44;;;12.81;88.81
30730;BME280;17476;48.458;7.928;2023-05-14T00:48:20;99918.91;;;12.77;87.99
30730;BME280;17476;48.458;7.928;2023-05-14T00:50:48;99913.44;;;12.64;89.52
30730;BME280;17476;48.458;7.928;2023-05-14T00:53:16;99921.38;;;12.56;89.40
30730;BME280;17476;48.458;7.928;2023-05-14T00:55:42;99914.84;;;12.52;89.71
30730;BME280;17476;48.458;7.928;2023-05-14T00:58:12;99912.78;;;12.47;89.88
30730;BME280;17476;48.458;7.928;2023-05-14T01:00:39;99912.06;;;12.53;89.39
30730;BME280;17476;48.458;7.928;2023-05-14T01:03:06;99918.28;;;12.52;88.74
30730;BME280;17476;48.458;7.928;2023-05-14T01:11:54;99911.22;;;12.53;89.00
30730;BME280;17476;48.458;7.928;2023-05-14T01:14:33;99915.50;;;12.54;89.76
30730;BME280;17476;48.458;7.928;2023-05-14T01:17:03;99919.56;;;12.56;89.53
30730;BME280;17476;48.458;7.928;2023-05-14T01:19:43;99911.69;;;12.56;88.70
30730;BME280;17476;48.458;7.928;2023-05-14T01:22:10;99917.72;;;12.42;89.54
30730;BME280;17476;48.458;7.928;2023-05-14T01:24:36;99917.78;;;12.34;90.45
30730;BME280;17476;48.458;7.928;2023-05-14T01:32:58;99910.91;;;12.33;92.50
30730;BME280;17476;48.458;7.928;2023-05-14T01:35:29;99909.22;;;12.40;92.36
30730;BME280;17476;48.458;7.928;2023-05-14T01:38:01;99911.88;;;12.32;92.99
30730;BME280;17476;48.458;7.928;2023-05-14T01:40:28;99906.13;;;12.14;94.62
30730;BME280;17476;48.458;7.928;2023-05-14T01:42:55;99913.69;;;12.09;94.35
30730;BME280;17476;48.458;7.928;2023-05-14T01:45:22;99920.13;;;12.06;95.01
30730;BME280;17476;48.458;7.928;2023-05-14T01:47:49;99912.19;;;12.14;94.54
30730;BME280;17476;48.458;7.928;2023-05-14T01:50:16;99910.81;;;12.26;93.10
30730;BME280;17476;48.458;7.928;2023-05-14T01:52:41;99912.44;;;12.27;93.19
30730;BME280;17476;48.458;7.928;2023-05-14T01:55:08;99918.94;;;12.09;94.66
30730;BME280;17476;48.458;7.928;2023-05-14T01:57:34;99915.19;;;12.03;96.13
30730;BME280;17476;48.458;7.928;2023-05-14T02:00:00;99913.94;;;11.99;96.24
30730;BME280;17476;48.458;7.928;2023-05-14T02:02:26;99917.50;;;12.06;96.13
30730;BME280;17476;48.458;7.928;2023-05-14T02:04:52;99907.06;;;12.21;95.58
30730;BME280;17476;48.458;7.928;2023-05-14T02:07:17;99905.13;;;12.38;94.78
30730;BME280;17476;48.458;7.928;2023-05-14T02:09:43;99906.41;;;12.42;93.69
30730;BME280;17476;48.458;7.928;2023-05-14T02:12:09;99910.78;;;12.49;93.39
30730;BME280;17476;48.458;7.928;2023-05-14T02:14:36;99906.81;;;12.53;92.97
30730;BME280;17476;48.458;7.928;2023-05-14T02:17:02;99911.53;;;12.58;92.80
30730;BME280;17476;48.458;7.928;2023-05-14T02:19:29;99912.50;;;12.57;93.48
30730;BME280;17476;48.458;7.928;2023-05-14T02:21:55;99905.84;;;12.69;93.17
30730;BME280;17476;48.458;7.928;2023-05-14T02:24:20;99909.41;;;12.76;93.15
30730;BME280;17476;48.458;7.928;2023-05-14T02:26:46;99915.56;;;12.83;91.86
30730;BME280;17476;48.458;7.928;2023-05-14T02:29:12;99913.22;;;12.89;91.38
30730;BME280;17476;48.458;7.928;2023-05-14T02:31:38;99910.84;;;12.94;90.43
30730;BME280;17476;48.458;7.928;2023-05-14T02:34:04;99912.31;;;12.96;90.05
30730;BME280;17476;48.458;7.928;2023-05-14T02:36:33;99915.56;;;12.98;89.95
30730;BME280;17476;48.458;7.928;2023-05-14T02:38:59;99914.41;;;13.01;89.02
30730;BME280;17476;48.458;7.928;2023-05-14T02:41:29;99906.53;;;13.01;88.77
30730;BME280;17476;48.458;7.928;2023-05-14T02:43:55;99906.69;;;12.99;89.38
30730;BME280;17476;48.458;7.928;2023-05-14T02:46:21;99901.91;;;13.03;89.39
30730;BME280;17476;48.458;7.928;2023-05-14T02:48:46;99903.34;;;13.05;88.92
30730;BME280;17476;48.458;7.928;2023-05-14T02:51:12;99904.34;;;13.04;88.63
30730;BME280;17476;48.458;7.928;2023-05-14T02:53:38;99909.78;;;13.03;88.83
30730;BME280;17476;48.458;7.928;2023-05-14T02:56:04;99902.25;;;13.00;88.90
30730;BME280;17476;48.458;7.928;2023-05-14T02:58:30;99905.25;;;12.97;89.45
30730;BME280;17476;48.458;7.928;2023-05-14T03:00:56;99900.19;;;12.95;89.14
30730;BME280;17476;48.458;7.928;2023-05-14T03:03:21;99896.91;;;12.93;89.28
30730;BME280;17476;48.458;7.928;2023-05-14T03:05:47;99894.47;;;12.92;88.83
30730;BME280;17476;48.458;7.928;2023-05-14T03:08:13;99892.03;;;12.90;88.83
30730;BME280;17476;48.458;7.928;2023-05-14T03:10:39;99888.03;;;12.79;89.61
30730;BME280;17476;48.458;7.928;2023-05-14T03:13:05;99893.03;;;12.74;90.41
30730;BME280;17476;48.458;7.928;2023-05-14T03:15:30;99886.78;;;12.75;90.48
30730;BME280;17476;48.458;7.928;2023-05-14T03:17:56;99884.16;;;12.75;90.58
30730;BME280;17476;48.458;7.928;2023-05-14T03:20:23;99893.19;;;12.73;90.84
30730;BME280;17476;48.458;7.928;2023-05-14T03:22:50;99894.66;;;12.75;90.67
30730;BME280;17476;48.458;7.928;2023-05-14T03:25:16;99890.13;;;12.69;91.06
30730;BME280;17476;48.458;7.928;2023-05-14T03:27:42;99889.63;;;12.66;91.70
30730;BME280;17476;48.458;7.928;2023-05-14T03:30:08;99889.31;;;12.69;91.83
30730;BME280;17476;48.458;7.928;2023-05-14T03:32:36;99886.50;;;12.70;91.54
30730;BME280;17476;48.458;7.928;2023-05-14T03:35:02;99893.03;;;12.74;91.36
30730;BME280;17476;48.458;7.928;2023-05-14T03:37:28;99894.47;;;12.77;91.60
30730;BME280;17476;48.458;7.928;2023-05-14T03:39:54;99883.25;;;12.83;91.09
30730;BME280;17476;48.458;7.928;2023-05-14T03:42:20;99896.19;;;12.84;91.20
30730;BME280;17476;48.458;7.928;2023-05-14T03:44:45;99892.84;;;12.91;90.31
30730;BME280;17476;48.458;7.928;2023-05-14T03:47:11;99891.94;;;12.98;89.90
30730;BME280;17476;48.458;7.928;2023-05-14T03:49:37;99891.75;;;12.85;89.50
30730;BME280;17476;48.458;7.928;2023-05-14T03:52:03;99886.78;;;12.75;90.99
30730;BME280;17476;48.458;7.928;2023-05-14T03:54:29;99890.84;;;12.78;91.31
30730;BME280;17476;48.458;7.928;2023-05-14T03:56:55;99891.75;;;12.85;90.52
30730;BME280;17476;48.458;7.928;2023-05-14T03:59:20;99893.94;;;12.81;90.61
30730;BME280;17476;48.458;7.928;2023-05-14T04:01:46;99888.84;;;12.80;90.85
30730;BME280;17476;48.458;7.928;2023-05-14T04:04:12;99888.84;;;12.80;90.67
30730;BME280;17476;48.458;7.928;2023-05-14T04:06:38;99895.56;;;12.82;90.92
30730;BME280;17476;48.458;7.928;2023-05-14T04:09:04;99891.31;;;12.81;91.30
30730;BME280;17476;48.458;7.928;2023-05-14T04:11:29;99892.94;;;12.82;90.93
30730;BME280;17476;48.458;7.928;2023-05-14T04:13:55;99893.47;;;12.78;90.75
30730;BME280;17476;48.458;7.928;2023-05-14T04:16:21;99889.84;;;12.79;91.56
30730;BME280;17476;48.458;7.928;2023-05-14T04:18:47;99893.66;;;12.76;91.44
30730;BME280;17476;48.458;7.928;2023-05-14T04:21:12;99895.34;;;12.69;91.13
30730;BME280;17476;48.458;7.928;2023-05-14T04:23:38;99892.22;;;12.74;91.11
30730;BME280;17476;48.458;7.928;2023-05-14T04:26:04;99892.84;;;12.76;92.07
30730;BME280;17476;48.458;7.928;2023-05-14T04:28:30;99892.38;;;12.72;92.18
30730;BME280;17476;48.458;7.928;2023-05-14T04:30:56;99887.59;;;12.76;91.15
30730;BME280;17476;48.458;7.928;2023-05-14T04:33:22;99895.66;;;12.74;90.80
30730;BME280;17476;48.458;7.928;2023-05-14T04:35:48;99898.53;;;12.79;90.33
30730;BME280;17476;48.458;7.928;2023-05-14T04:38:14;99897.28;;;12.75;91.26
30730;BME280;17476;48.458;7.928;2023-05-14T04:40:40;99897.19;;;12.83;90.86
30730;BME280;17476;48.458;7.928;2023-05-14T04:43:06;99895.38;;;12.84;91.13
30730;BME280;17476;48.458;7.928;2023-05-14T04:45:32;99896.91;;;12.93;90.83
30730;BME280;17476;48.458;7.928;2023-05-14T04:47:58;99887.06;;;12.95;89.95
30730;BME280;17476;48.458;7.928;2023-05-14T04:50:24;99897.66;;;13.02;89.79
30730;BME280;17476;48.458;7.928;2023-05-14T04:52:51;99903.91;;;13.01;90.40
30730;BME280;17476;48.458;7.928;2023-05-14T04:55:16;99897.56;;;13.10;90.03
30730;BME280;17476;48.458;7.928;2023-05-14T04:57:42;99895.09;;;12.94;89.01
30730;BME280;17476;48.458;7.928;2023-05-14T05:00:09;99896.00;;;12.86;90.88
30730;BME280;17476;48.458;7.928;2023-05-14T05:02:35;99902.00;;;12.95;91.21
30730;BME280;17476;48.458;7.928;2023-05-14T05:05:02;99901.19;;;13.09;90.37
30730;BME280;17476;48.458;7.928;2023-05-14T05:07:28;99901.28;;;13.16;89.04
30730;BME280;17476;48.458;7.928;2023-05-14T05:09:54;99897.84;;;13.15;89.31
30730;BME280;17476;48.458;7.928;2023-05-14T05:12:20;99906.00;;;13.20;89.70
30730;BME280;17476;48.458;7.928;2023-05-14T05:14:46;99898.50;;;13.32;88.76
30730;BME280;17476;48.458;7.928;2023-05-14T05:17:12;99893.81;;;13.42;88.56
30730;BME280;17476;48.458;7.928;2023-05-14T05:19:37;99891.34;;;13.55;88.21
30730;BME280;17476;48.458;7.928;2023-05-14T05:22:03;99895.47;;;13.64;87.70
30730;BME280;17476;48.458;7.928;2023-05-14T05:24:29;99893.75;;;13.72;87.25
30730;BME280;17476;48.458;7.928;2023-05-14T05:26:55;99891.00;;;13.80;87.08
30730;BME280;17476;48.458;7.928;2023-05-14T05:29:22;99892.13;;;13.92;86.10
30730;BME280;17476;48.458;7.928;2023-05-14T05:31:48;99893.16;;;13.91;85.71
30730;BME280;17476;48.458;7.928;2023-05-14T05:34:14;99900.28;;;13.97;85.60
30730;BME280;17476;48.458;7.928;2023-05-14T05:36:40;99903.19;;;14.02;86.07
30730;BME280;17476;48.458;7.928;2023-05-14T05:39:06;99901.59;;;14.08;85.06
30730;BME280;17476;48.458;7.928;2023-05-14T05:41:32;99903.13;;;14.17;84.69
30730;BME280;17476;48.458;7.928;2023-05-14T05:43:58;99900.72;;;14.22;84.73
30730;BME280;17476;48.458;7.928;2023-05-14T05:46:23;99903.06;;;14.32;84.27
30730;BME280;17476;48.458;7.928;2023-05-14T05:48:49;99899.47;;;14.39;83.99
30730;BME280;17476;48.458;7.928;2023-05-14T05:51:15;99902.81;;;14.48;83.35
30730;BME280;17476;48.458;7.928;2023-05-14T05:53:41;99901.84;;;14.56;82.39
30730;BME280;17476;48.458;7.928;2023-05-14T05:56:07;99900.88;;;14.57;83.13
30730;BME280;17476;48.458;7.928;2023-05-14T05:58:33;99899.78;;;14.72;81.67
30730;BME280;17476;48.458;7.928;2023-05-14T06:00:58;99898.97;;;14.72;82.19
30730;BME280;17476;48.458;7.928;2023-05-14T06:03:24;99904.47;;;14.77;81.77
30730;BME280;17476;48.458;7.928;2023-05-14T06:05:51;99902.25;;;14.81;81.17
30730;BME280;17476;48.458;7.928;2023-05-14T06:08:17;99908.19;;;14.89;80.54
30730;BME280;17476;48.458;7.928;2023-05-14T06:10:43;99908.38;;;14.88;81.72
30730;BME280;17476;48.458;7.928;2023-05-14T06:13:10;99912.72;;;15.02;81.36
30730;BME280;17476;48.458;7.928;2023-05-14T06:15:36;99904.06;;;15.08;81.39
30730;BME280;17476;48.458;7.928;2023-05-14T06:18:02;99908.34;;;15.16;82.14
30730;BME280;17476;48.458;7.928;2023-05-14T06:20:28;99909.19;;;15.23;81.21
30730;BME280;17476;48.458;7.928;2023-05-14T06:22:54;99906.81;;;15.28;81.85
30730;BME280;17476;48.458;7.928;2023-05-14T06:25:19;99902.19;;;15.37;81.77
30730;BME280;17476;48.458;7.928;2023-05-14T06:27:45;99900.38;;;15.44;81.57
30730;BME280;17476;48.458;7.928;2023-05-14T06:30:11;99902.91;;;15.59;81.66
30730;BME280;17476;48.458;7.928;2023-05-14T06:32:37;99901.31;;;15.64;81.31
30730;BME280;17476;48.458;7.928;2023-05-14T06:35:04;99899.72;;;15.70;80.80
30730;BME280;17476;48.458;7.928;2023-05-14T06:37:30;99898.13;;;15.75;81.10
30730;BME280;17476;48.458;7.928;2023-05-14T06:39:56;99898.94;;;15.82;80.55
30730;BME280;17476;48.458;7.928;2023-05-14T06:42:22;99897.94;;;15.90;80.85
30730;BME280;17476;48.458;7.928;2023-05-14T06:44:48;99898.19;;;16.02;80.85
30730;BME280;17476;48.458;7.928;2023-05-14T06:47:14;99900.03;;;16.15;80.32
30730;BME280;17476;48.458;7.928;2023-05-14T06:49:39;99896.81;;;16.26;79.97
30730;BME280;17476;48.458;7.928;2023-05-14T06:52:05;99885.06;;;16.48;79.80
30730;BME280;17476;48.458;7.928;2023-05-14T06:54:31;99894.41;;;16.77;78.88
30730;BME280;17476;48.458;7.928;2023-05-14T06:56:57;99889.50;;;17.01;78.96
30730;BME280;17476;48.458;7.928;2023-05-14T06:59:23;99891.91;;;17.15;75.40
30730;BME280;17476;48.458;7.928;2023-05-14T07:01:49;99893.03;;;17.39;76.33
30730;BME280;17476;48.458;7.928;2023-05-14T07:04:14;99884.63;;;17.62;75.74
30730;BME280;17476;48.458;7.928;2023-05-14T07:06:40;99884.78;;;17.74;73.86
30730;BME280;17476;48.458;7.928;2023-05-14T07:09:06;99886.53;;;17.87;71.68
30730;BME280;17476;48.458;7.928;2023-05-14T07:11:32;99888.84;;;17.77;72.46
30730;BME280;17476;48.458;7.928;2023-05-14T07:13:58;99878.84;;;17.79;72.24
30730;BME280;17476;48.458;7.928;2023-05-14T07:16:25;99888.16;;;17.88;73.46
30730;BME280;17476;48.458;7.928;2023-05-14T07:18:51;99885.84;;;18.05;73.34
30730;BME280;17476;48.458;7.928;2023-05-14T07:21:17;99883.50;;;18.15;70.94
30730;BME280;17476;48.458;7.928;2023-05-14T07:23:43;99889.19;;;18.50;71.49
30730;BME280;17476;48.458;7.928;2023-05-14T07:26:09;99886.91;;;18.78;70.56
30730;BME280;17476;48.458;7.928;2023-05-14T07:28:35;99885.03;;;19.04;70.64
30730;BME280;17476;48.458;7.928;2023-05-14T07:31:01;99882.38;;;19.22;69.74
30730;BME280;17476;48.458;7.928;2023-05-14T07:33:32;99884.22;;;19.58;70.83
30730;BME280;17476;48.458;7.928;2023-05-14T07:35:58;99879.41;;;19.97;67.04
30730;BME280;17476;48.458;7.928;2023-05-14T07:38:24;99872.34;;;20.33;69.19
30730;BME280;17476;48.458;7.928;2023-05-14T07:40:49;99870.78;;;20.67;65.97
30730;BME280;17476;48.458;7.928;2023-05-14T07:43:15;99870.75;;;20.90;65.60
30730;BME280;17476;48.458;7.928;2023-05-14T07:45:41;99868.22;;;20.84;63.79
30730;BME280;17476;48.458;7.928;2023-05-14T07:48:07;99866.59;;;20.83;63.20
30730;BME280;17476;48.458;7.928;2023-05-14T07:50:33;99868.22;;;20.84;63.65
30730;BME280;17476;48.458;7.928;2023-05-14T07:52:59;99863.25;;;20.76;63.02
30730;BME280;17476;48.458;7.928;2023-05-14T07:55:25;99871.00;;;20.89;63.70
30730;BME280;17476;48.458;7.928;2023-05-14T07:57:50;99864.94;;;21.05;64.03
30730;BME280;17476;48.458;7.928;2023-05-14T08:00:16;99863.34;;;21.56;65.42
30730;BME280;17476;48.458;7.928;2023-05-14T08:02:43;99859.31;;;22.11;60.36
30730;BME280;17476;48.458;7.928;2023-05-14T08:05:09;99866.56;;;22.66;58.39
30730;BME280;17476;48.458;7.928;2023-05-14T08:07:49;99864.53;;;22.90;58.29
30730;BME280;17476;48.458;7.928;2023-05-14T08:10:24;99862.78;;;23.00;58.12
30730;BME280;17476;48.458;7.928;2023-05-14T08:12:50;99855.03;;;23.21;56.06
30730;BME280;17476;48.458;7.928;2023-05-14T08:15:16;99857.69;;;23.42;57.36
30730;BME280;17476;48.458;7.928;2023-05-14T08:17:42;99858.63;;;23.53;52.48
30730;BME280;17476;48.458;7.928;2023-05-14T08:20:08;99847.63;;;23.72;54.57
30730;BME280;17476;48.458;7.928;2023-05-14T08:22:36;99845.63;;;24.16;55.46
30730;BME280;17476;48.458;7.928;2023-05-14T08:25:02;99841.91;;;24.54;51.54
30730;BME280;17476;48.458;7.928;2023-05-14T08:27:31;99834.34;;;24.88;50.06
30730;BME280;17476;48.458;7.928;2023-05-14T08:29:56;99835.56;;;25.18;50.79
30730;BME280;17476;48.458;7.928;2023-05-14T08:32:22;99827.59;;;25.33;49.29
30730;BME280;17476;48.458;7.928;2023-05-14T08:34:48;99832.44;;;25.36;50.61
30730;BME280;17476;48.458;7.928;2023-05-14T08:37:14;99829.72;;;25.26;50.35
30730;BME280;17476;48.458;7.928;2023-05-14T08:39:40;99824.56;;;25.09;49.30
30730;BME280;17476;48.458;7.928;2023-05-14T08:42:06;99829.28;;;24.92;49.80
30730;BME280;17476;48.458;7.928;2023-05-14T08:44:41;99823.31;;;24.74;48.62
30730;BME280;17476;48.458;7.928;2023-05-14T08:47:11;99826.84;;;24.85;49.29
30730;BME280;17476;48.458;7.928;2023-05-14T08:49:42;99821.50;;;24.90;50.09
30730;BME280;17476;48.458;7.928;2023-05-14T08:52:08;99820.13;;;25.35;48.78
30730;BME280;17476;48.458;7.928;2023-05-14T08:54:35;99818.06;;;25.73;50.44
30730;BME280;17476;48.458;7.928;2023-05-14T08:57:03;99821.28;;;26.05;47.15
30730;BME280;17476;48.458;7.928;2023-05-14T08:59:29;99811.09;;;26.28;48.47
30730;BME280;17476;48.458;7.928;2023-05-14T09:01:57;99808.94;;;26.25;45.75
30730;BME280;17476;48.458;7.928;2023-05-14T09:04:24;99807.88;;;26.51;47.27
30730;BME280;17476;48.458;7.928;2023-05-14T09:06:54;99805.09;;;26.82;44.97
30730;BME280;17476;48.458;7.928;2023-05-14T09:09:21;99800.16;;;27.14;44.02
30730;BME280;17476;48.458;7.928;2023-05-14T09:11:52;99794.00;;;27.58;43.45
30730;BME280;17476;48.458;7.928;2023-05-14T09:14:18;99786.94;;;28.01;43.75
30730;BME280;17476;48.458;7.928;2023-05-14T09:16:47;99788.75;;;28.64;44.39
30730;BME280;17476;48.458;7.928;2023-05-14T09:19:14;99787.34;;;28.96;42.63
30730;BME280;17476;48.458;7.928;2023-05-14T09:21:45;99784.06;;;29.18;42.06
30730;BME280;17476;48.458;7.928;2023-05-14T09:24:25;99781.19;;;29.14;39.85
30730;BME280;17476;48.458;7.928;2023-05-14T09:27:01;99786.50;;;28.71;38.61
30730;BME280;17476;48.458;7.928;2023-05-14T09:29:28;99795.28;;;28.34;39.84
30730;BME280;17476;48.458;7.928;2023-05-14T09:31:55;99786.63;;;27.74;40.47
30730;BME280;17476;48.458;7.928;2023-05-14T09:34:26;99789.13;;;27.16;40.85
30730;BME280;17476;48.458;7.928;2023-05-14T09:36:58;99787.97;;;26.67;42.08
30730;BME280;17476;48.458;7.928;2023-05-14T09:39:25;99778.59;;;26.60;42.35
30730;BME280;17476;48.458;7.928;2023-05-14T09:41:51;99774.84;;;26.61;40.89
30730;BME280;17476;48.458;7.928;2023-05-14T09:44:21;99780.47;;;26.59;44.10
30730;BME280;17476;48.458;7.928;2023-05-14T09:46:48;99775.97;;;26.50;43.23
30730;BME280;17476;48.458;7.928;2023-05-14T09:49:14;99776.25;;;26.43;41.70
30730;BME280;17476;48.458;7.928;2023-05-14T09:51:40;99777.56;;;26.56;43.28
30730;BME280;17476;48.458;7.928;2023-05-14T09:54:06;99774.09;;;27.15;43.28
30730;BME280;17476;48.458;7.928;2023-05-14T09:56:34;99778.09;;;27.62;43.73
30730;BME280;17476;48.458;7.928;2023-05-14T09:59:00;99769.56;;;27.89;38.85
30730;BME280;17476;48.458;7.928;2023-05-14T10:01:28;99772.06;;;27.80;37.80
30730;BME280;17476;48.458;7.928;2023-05-14T10:03:54;99770.84;;;27.62;38.64
30730;BME280;17476;48.458;7.928;2023-05-14T10:06:35;99767.28;;;27.33;38.83
30730;BME280;17476;48.458;7.928;2023-05-14T10:09:07;99766.84;;;27.15;38.88
30730;BME280;17476;48.458;7.928;2023-05-14T10:11:37;99773.38;;;26.94;39.60
30730;BME280;17476;48.458;7.928;2023-05-14T10:14:32;99770.53;;;26.65;41.42
30730;BME280;17476;48.458;7.928;2023-05-14T10:17:00;99767.13;;;26.49;41.45
30730;BME280;17476;48.458;7.928;2023-05-14T10:19:27;99766.03;;;26.45;41.91
30730;BME280;17476;48.458;7.928;2023-05-14T10:22:05;99761.50;;;26.25;40.61
30730;BME280;17476;48.458;7.928;2023-05-14T10:24:32;99762.22;;;26.66;42.10
30730;BME280;17476;48.458;7.928;2023-05-14T10:26:59;99763.69;;;27.03;40.31
30730;BME280;17476;48.458;7.928;2023-05-14T10:29:36;99764.50;;;26.99;41.22
30730;BME280;17476;48.458;7.928;2023-05-14T10:32:07;99758.66;;;26.81;39.42
30730;BME280;17476;48.458;7.928;2023-05-14T10:34:42;99759.50;;;26.72;41.08
30730;BME280;17476;48.458;7.928;2023-05-14T10:37:16;99746.00;;;26.97;40.79
30730;BME280;17476;48.458;7.928;2023-05-14T10:39:50;99749.13;;;27.14;38.85
30730;BME280;17476;48.458;7.928;2023-05-14T10:42:30;99745.69;;;26.99;40.02
30730;BME280;17476;48.458;7.928;2023-05-14T10:45:00;99747.00;;;27.11;41.11
30730;BME280;17476;48.458;7.928;2023-05-14T10:47:27;99733.94;;;27.39;39.57
30730;BME280;17476;48.458;7.928;2023-05-14T10:49:56;99730.94;;;27.85;39.66
30730;BME280;17476;48.458;7.928;2023-05-14T10:52:23;99729.81;;;28.15;36.66
30730;BME280;17476;48.458;7.928;2023-05-14T10:54:53;99722.75;;;27.95;37.85
30730;BME280;17476;48.458;7.928;2023-05-14T10:57:21;99731.03;;;27.69;38.66
30730;BME280;17476;48.458;7.928;2023-05-14T10:59:49;99732.50;;;27.52;36.92
30730;BME280;17476;48.458;7.928;2023-05-14T11:02:22;99725.59;;;27.40;36.89
30730;BME280;17476;48.458;7.928;2023-05-14T11:05:07;99717.53;;;28.03;39.29
30730;BME280;17476;48.458;7.928;2023-05-14T11:07:44;99719.00;;;28.68;37.71
30730;BME280;17476;48.458;7.928;2023-05-14T11:10:16;99702.16;;;29.37;34.69
30730;BME280;17476;48.458;7.928;2023-05-14T11:12:45;99709.97;;;29.20;36.01
30730;BME280;17476;48.458;7.928;2023-05-14T11:15:15;99705.78;;;29.47;35.03
30730;BME280;17476;48.458;7.928;2023-05-14T11:17:43;99703.19;;;29.23;34.04
30730;BME280;17476;48.458;7.928;2023-05-14T11:20:10;99703.69;;;29.25;34.92
30730;BME280;17476;48.458;7.928;2023-05-14T11:22:38;99695.00;;;29.79;34.57
30730;BME280;17476;48.458;7.928;2023-05-14T11:25:05;99696.09;;;30.38;35.27
30730;BME280;17476;48.458;7.928;2023-05-14T11:27:37;99693.75;;;30.73;33.48
30730;BME280;17476;48.458;7.928;2023-05-14T11:30:04;99690.19;;;30.50;32.73
30730;BME280;17476;48.458;7.928;2023-05-14T11:32:31;99696.13;;;30.06;33.47
30730;BME280;17476;48.458;7.928;2023-05-14T11:34:57;99693.66;;;29.96;34.12
30730;BME280;17476;48.458;7.928;2023-05-14T11:37:23;99697.59;;;30.17;34.27
30730;BME280;17476;48.458;7.928;2023-05-14T11:39:52;99698.34;;;30.59;33.93
30730;BME280;17476;48.458;7.928;2023-05-14T11:42:19;99696.75;;;31.08;32.20
30730;BME280;17476;48.458;7.928;2023-05-14T11:44:50;99687.50;;;31.00;30.95
30730;BME280;17476;48.458;7.928;2023-05-14T11:47:18;99700.16;;;30.77;30.78
30730;BME280;17476;48.458;7.928;2023-05-14T11:49:44;99691.31;;;30.22;34.42
30730;BME280;17476;48.458;7.928;2023-05-14T11:52:12;99688.66;;;29.89;34.48
30730;BME280;17476;48.458;7.928;2023-05-14T11:54:40;99679.50;;;30.17;33.63
30730;BME280;17476;48.458;7.928;2023-05-14T11:57:14;99681.56;;;30.34;32.47
30730;BME280;17476;48.458;7.928;2023-05-14T11:59:40;99669.16;;;30.61;32.59
30730;BME280;17476;48.458;7.928;2023-05-14T12:02:11;99674.97;;;30.54;32.42
30730;BME280;17476;48.458;7.928;2023-05-14T12:04:38;99674.69;;;30.42;33.70
30730;BME280;17476;48.458;7.928;2023-05-14T12:07:13;99674.41;;;30.43;32.45
30730;BME280;17476;48.458;7.928;2023-05-14T12:09:46;99669.50;;;30.18;32.25
30730;BME280;17476;48.458;7.928;2023-05-14T12:12:19;99664.78;;;29.82;32.47
30730;BME280;17476;48.458;7.928;2023-05-14T12:14:47;99663.94;;;29.68;31.92
30730;BME280;17476;48.458;7.928;2023-05-14T12:17:20;99659.78;;;29.89;33.12
30730;BME280;17476;48.458;7.928;2023-05-14T12:19:49;99646.03;;;30.18;33.32
30730;BME280;17476;48.458;7.928;2023-05-14T12:22:18;99651.22;;;30.92;31.43
30730;BME280;17476;48.458;7.928;2023-05-14T12:24:56;99644.72;;;31.38;29.82
30730;BME280;17476;48.458;7.928;2023-05-14T12:27:24;99645.28;;;32.20;30.47
30730;BME280;17476;48.458;7.928;2023-05-14T12:29:58;99651.22;;;31.91;29.90
30730;BME280;17476;48.458;7.928;2023-05-14T12:32:25;99636.94;;;32.08;29.94
30730;BME280;17476;48.458;7.928;2023-05-14T12:34:51;99645.34;;;31.66;30.39
30730;BME280;17476;48.458;7.928;2023-05-14T12:37:16;99637.06;;;31.63;32.22
30730;BME280;17476;48.458;7.928;2023-05-14T12:39:43;99634.16;;;31.90;29.91
30730;BME280;17476;48.458;7.928;2023-05-14T12:42:09;99633.81;;;32.23;29.95
30730;BME280;17476;48.458;7.928;2023-05-14T12:44:34;99619.88;;;32.47;29.76
30730;BME280;17476;48.458;7.928;2023-05-14T12:47:01;99619.41;;;33.05;29.33
30730;BME280;17476;48.458;7.928;2023-05-14T12:49:26;99616.16;;;33.38;29.47
30730;BME280;17476;48.458;7.928;2023-05-14T12:51:53;99610.03;;;33.58;27.73
30730;BME280;17476;48.458;7.928;2023-05-14T12:54:18;99607.44;;;33.71;28.27
30730;BME280;17476;48.458;7.928;2023-05-14T12:56:44;99616.75;;;33.52;27.92
30730;BME280;17476;48.458;7.928;2023-05-14T12:59:10;99603.44;;;33.12;26.81
30730;BME280;17476;48.458;7.928;2023-05-14T13:01:36;99605.25;;;32.65;26.83
30730;BME280;17476;48.458;7.928;2023-05-14T13:04:04;99601.72;;;32.56;30.09
30730;BME280;17476;48.458;7.928;2023-05-14T13:06:29;99595.50;;;32.55;29.15
30730;BME280;17476;48.458;7.928;2023-05-14T13:08:56;99601.84;;;32.42;29.04
30730;BME280;17476;48.458;7.928;2023-05-14T13:11:24;99598.84;;;33.04;28.72
30730;BME280;17476;48.458;7.928;2023-05-14T13:13:54;99595.47;;;33.72;28.00